sensor_id;sensor_type;location;lat;lon;timestamp;pressure;altitude;pressure_sealevel;temperature;humidity
24762;BME280;12865;51.934;10.330;2023-01-25T00:02:10;101227.41;;;-0.38;100.00
24762;BME280;12865;51.934;10.330;2023-01-25T00:04:55;101219.53;;;-0.37;100.00
24762;BME280;12865;51.934;10.330;2023-01-25T00:07:41;101220.41;;;-0.36;100.00
24762;BME280;12865;51.934;10.330;2023-01-25T00:10:27;101215.19;;;-0.38;100.00
24762;BME280;12865;51.934;10.330;2023-01-25T00:13:12;101218.72;;;-0.42;100.00
24762;BME280;12865;51.934;10.330;2023-01-25T00:16:02;101219.56;;;-0.38;100.00
24762;BME280;12865;51.934;10.330;2023-01-25T00:18:49;101217.72;;;-0.33;100.00
24762;BME280;12865;51.934;10.330;2023-01-25T00:21:35;101212.59;;;-0.41;100.00
24762;BME280;12865;51.934;10.330;2023-01-25T00:24:21;101213.44;;;-0.39;100.00
24762;BME280;12865;51.934;10.330;2023-01-25T00:27:07;101204.78;;;-0.44;100.00
24762;BME280;12865;51.934;10.330;2023-01-25T00:29:53;101191.78;;;-0.50;100.00
24762;BME280;12865;51.934;10.330;2023-01-25T00:32:53;101200.47;;;-0.48;100.00
24762;BME280;12865;51.934;10.330;2023-01-25T00:35:47;101182.13;;;-0.48;100.00
24762;BME280;12865;51.934;10.330;2023-01-25T00:38:33;101175.13;;;-0.46;100.00
24762;BME280;12865;51.934;10.330;2023-01-25T00:41:19;101182.19;;;-0.51;100.00
24762;BME280;12865;51.934;10.330;2023-01-25T00:44:05;101175.91;;;-0.40;100.00
24762;BME280;12865;51.934;10.330;2023-01-25T00:46:51;101176.00;;;-0.47;100.00
24762;BME280;12865;51.934;10.330;2023-01-25T00:49:38;101178.63;;;-0.47;100.00
24762;BME280;12865;51.934;10.330;2023-01-25T00:52:24;101183.06;;;-0.52;100.00
24762;BME280;12865;51.934;10.330;2023-01-25T00:55:10;101175.19;;;-0.49;100.00
24762;BME280;12865;51.934;10.330;2023-01-25T00:57:55;101175.09;;;-0.45;100.00
24762;BME280;12865;51.934;10.330;2023-01-25T01:00:41;101172.56;;;-0.49;100.00
24762;BME280;12865;51.934;10.330;2023-01-25T01:03:27;101167.28;;;-0.48;100.00
24762;BME280;12865;51.934;10.330;2023-01-25T01:06:13;101168.22;;;-0.50;100.00
24762;BME280;12865;51.934;10.330;2023-01-25T01:08:58;101175.25;;;-0.55;100.00
24762;BME280;12865;51.934;10.330;2023-01-25T01:11:44;101177.03;;;-0.57;100.00
24762;BME280;12865;51.934;10.330;2023-01-25T01:14:30;101171.72;;;-0.51;100.00
24762;BME280;12865;51.934;10.330;2023-01-25T01:17:15;101168.31;;;-0.56;100.00
24762;BME280;12865;51.934;10.330;2023-01-25T01:20:01;101175.31;;;-0.60;100.00
24762;BME280;12865;51.934;10.330;2023-01-25T01:22:47;101177.06;;;-0.59;100.00
24762;BME280;12865;51.934;10.330;2023-01-25T01:25:32;101175.44;;;-0.67;100.00
24762;BME280;12865;51.934;10.330;2023-01-25T01:28:19;101167.59;;;-0.69;100.00
24762;BME280;12865;51.934;10.330;2023-01-25T01:31:08;101151.84;;;-0.67;100.00
24762;BME280;12865;51.934;10.330;2023-01-25T01:33:56;101165.00;;;-0.70;100.00
24762;BME280;12865;51.934;10.330;2023-01-25T01:36:42;101155.38;;;-0.70;100.00
24762;BME280;12865;51.934;10.330;2023-01-25T01:39:28;101148.38;;;-0.68;100.00
24762;BME280;12865;51.934;10.330;2023-01-25T01:42:14;101149.25;;;-0.67;100.00
24762;BME280;12865;51.934;10.330;2023-01-25T01:44:59;101150.09;;;-0.65;100.00
24762;BME280;12865;51.934;10.330;2023-01-25T01:47:45;101138.75;;;-0.67;100.00
24762;BME280;12865;51.934;10.330;2023-01-25T01:50:33;101141.50;;;-0.76;100.00
24762;BME280;12865;51.934;10.330;2023-01-25T01:53:20;101140.53;;;-0.69;100.00
24762;BME280;12865;51.934;10.330;2023-01-25T01:56:10;101135.47;;;-0.80;100.00
24762;BME280;12865;51.934;10.330;2023-01-25T01:58:59;101132.75;;;-0.75;100.00
24762;BME280;12865;51.934;10.330;2023-01-25T02:01:45;101133.63;;;-0.75;100.00
24762;BME280;12865;51.934;10.330;2023-01-25T02:04:31;101120.56;;;-0.76;100.00
24762;BME280;12865;51.934;10.330;2023-01-25T02:07:31;101115.25;;;-0.70;100.00
24762;BME280;12865;51.934;10.330;2023-01-25T02:10:16;101111.78;;;-0.71;100.00
24762;BME280;12865;51.934;10.330;2023-01-25T02:13:03;101102.97;;;-0.68;100.00
24762;BME280;12865;51.934;10.330;2023-01-25T02:15:50;101103.94;;;-0.74;100.00
24762;BME280;12865;51.934;10.330;2023-01-25T02:18:36;101098.81;;;-0.80;100.00
24762;BME280;12865;51.934;10.330;2023-01-25T02:21:23;101098.81;;;-0.80;100.00
24762;BME280;12865;51.934;10.330;2023-01-25T02:24:22;101103.19;;;-0.81;100.00
24762;BME280;12865;51.934;10.330;2023-01-25T02:27:12;101098.91;;;-0.88;100.00
24762;BME280;12865;51.934;10.330;2023-01-25T02:29:58;101088.34;;;-0.82;100.00
24762;BME280;12865;51.934;10.330;2023-01-25T02:32:44;101079.69;;;-0.87;100.00
24762;BME280;12865;51.934;10.330;2023-01-25T02:36:12;101088.34;;;-0.82;100.00
24762;BME280;12865;51.934;10.330;2023-01-25T02:39:02;101085.13;;;-0.99;100.00
24762;BME280;12865;51.934;10.330;2023-01-25T02:41:48;101088.59;;;-0.98;100.00
24762;BME280;12865;51.934;10.330;2023-01-25T02:44:34;101088.63;;;-1.00;100.00
24762;BME280;12865;51.934;10.330;2023-01-25T02:47:19;101079.06;;;-1.04;100.00
24762;BME280;12865;51.934;10.330;2023-01-25T02:50:05;101087.75;;;-0.99;100.00
24762;BME280;12865;51.934;10.330;2023-01-25T02:52:51;101085.94;;;-0.95;100.00
24762;BME280;12865;51.934;10.330;2023-01-25T02:55:37;101086.00;;;-0.98;100.00
24762;BME280;12865;51.934;10.330;2023-01-25T02:58:23;101077.94;;;-0.85;100.00
24762;BME280;12865;51.934;10.330;2023-01-25T03:01:09;101077.94;;;-0.86;100.00
24762;BME280;12865;51.934;10.330;2023-01-25T03:03:55;101078.78;;;-0.84;100.00
24762;BME280;12865;51.934;10.330;2023-01-25T03:06:41;101084.00;;;-0.83;100.00
24762;BME280;12865;51.934;10.330;2023-01-25T03:09:27;101081.44;;;-0.86;100.00
24762;BME280;12865;51.934;10.330;2023-01-25T03:12:12;101073.25;;;-0.64;100.00
24762;BME280;12865;51.934;10.330;2023-01-25T03:14:58;101075.13;;;-0.72;100.00
24762;BME280;12865;51.934;10.330;2023-01-25T03:17:44;101073.41;;;-0.76;100.00
24762;BME280;12865;51.934;10.330;2023-01-25T03:20:29;101069.91;;;-0.74;100.00
24762;BME280;12865;51.934;10.330;2023-01-25T03:23:15;101075.13;;;-0.74;100.00
24762;BME280;12865;51.934;10.330;2023-01-25T03:28:54;101069.88;;;-0.71;100.00
24762;BME280;12865;51.934;10.330;2023-01-25T03:31:39;101071.63;;;-0.73;100.00
24762;BME280;12865;51.934;10.330;2023-01-25T03:34:25;101066.44;;;-0.76;100.00
24762;BME280;12865;51.934;10.330;2023-01-25T03:37:11;101064.53;;;-0.65;100.00
24762;BME280;12865;51.934;10.330;2023-01-25T03:39:56;101061.69;;;-0.51;100.00
24762;BME280;12865;51.934;10.330;2023-01-25T03:42:42;101061.59;;;-0.45;100.00
24762;BME280;12865;51.934;10.330;2023-01-25T03:45:28;101048.53;;;-0.48;100.00
24762;BME280;12865;51.934;10.330;2023-01-25T03:48:14;101058.34;;;-0.62;100.00
24762;BME280;12865;51.934;10.330;2023-01-25T03:50:59;101065.09;;;-0.46;100.00
24762;BME280;12865;51.934;10.330;2023-01-25T03:53:45;101061.69;;;-0.51;100.00
24762;BME280;12865;51.934;10.330;2023-01-25T03:56:30;101069.69;;;-0.62;100.00
24762;BME280;12865;51.934;10.330;2023-01-25T03:59:16;101066.31;;;-0.67;100.00
24762;BME280;12865;51.934;10.330;2023-01-25T04:02:02;101065.41;;;-0.66;100.00
24762;BME280;12865;51.934;10.330;2023-01-25T04:04:47;101057.66;;;-0.72;100.00
24762;BME280;12865;51.934;10.330;2023-01-25T04:07:33;101045.47;;;-0.74;100.00
24762;BME280;12865;51.934;10.330;2023-01-25T04:10:19;101046.41;;;-0.78;100.00
24762;BME280;12865;51.934;10.330;2023-01-25T04:13:04;101044.78;;;-0.86;100.00
24762;BME280;12865;51.934;10.330;2023-01-25T04:15:50;101042.97;;;-0.84;100.00
24762;BME280;12865;51.934;10.330;2023-01-25T04:18:36;101030.75;;;-0.83;100.00
24762;BME280;12865;51.934;10.330;2023-01-25T04:21:22;101024.66;;;-0.84;100.00
24762;BME280;12865;51.934;10.330;2023-01-25T04:24:08;101027.25;;;-0.81;100.00
24762;BME280;12865;51.934;10.330;2023-01-25T04:26:54;101022.03;;;-0.84;100.00
24762;BME280;12865;51.934;10.330;2023-01-25T04:29:39;101023.84;;;-0.87;100.00
24762;BME280;12865;51.934;10.330;2023-01-25T04:32:25;101027.28;;;-0.84;100.00
24762;BME280;12865;51.934;10.330;2023-01-25T04:35:11;101023.84;;;-0.86;100.00
24762;BME280;12865;51.934;10.330;2023-01-25T04:37:57;101025.69;;;-0.92;100.00
24762;BME280;12865;51.934;10.330;2023-01-25T04:40:44;101017.84;;;-0.92;100.00
24762;BME280;12865;51.934;10.330;2023-01-25T04:43:30;101019.59;;;-0.93;100.00
24762;BME280;12865;51.934;10.330;2023-01-25T04:46:15;101010.78;;;-0.89;100.00
24762;BME280;12865;51.934;10.330;2023-01-25T04:49:01;101004.75;;;-0.92;100.00
24762;BME280;12865;51.934;10.330;2023-01-25T04:51:47;101006.50;;;-0.93;100.00
24762;BME280;12865;51.934;10.330;2023-01-25T04:54:32;101002.22;;;-0.98;100.00
24762;BME280;12865;51.934;10.330;2023-01-25T04:57:18;101001.47;;;-1.06;100.00
24762;BME280;12865;51.934;10.330;2023-01-25T05:00:04;101001.47;;;-1.06;100.00
24762;BME280;12865;51.934;10.330;2023-01-25T05:02:50;100998.81;;;-1.05;100.00
24762;BME280;12865;51.934;10.330;2023-01-25T05:05:36;100988.06;;;-0.87;100.00
24762;BME280;12865;51.934;10.330;2023-01-25T05:08:22;100990.84;;;-0.97;100.00
24762;BME280;12865;51.934;10.330;2023-01-25T05:11:07;100990.84;;;-0.97;100.00
24762;BME280;12865;51.934;10.330;2023-01-25T05:13:53;100981.28;;;-0.98;100.00
24762;BME280;12865;51.934;10.330;2023-01-25T05:16:39;100976.84;;;-0.95;100.00
24762;BME280;12865;51.934;10.330;2023-01-25T05:19:24;100979.47;;;-0.95;100.00
24762;BME280;12865;51.934;10.330;2023-01-25T05:22:16;100981.22;;;-0.95;100.00
24762;BME280;12865;51.934;10.330;2023-01-25T05:25:02;100975.22;;;-1.00;100.00
24762;BME280;12865;51.934;10.330;2023-01-25T05:27:50;100976.97;;;-1.02;100.00
24762;BME280;12865;51.934;10.330;2023-01-25T05:30:36;100970.84;;;-1.00;100.00
24762;BME280;12865;51.934;10.330;2023-01-25T05:33:21;100969.88;;;-0.96;100.00
24762;BME280;12865;51.934;10.330;2023-01-25T05:36:07;100974.19;;;-0.92;100.00
24762;BME280;12865;51.934;10.330;2023-01-25T05:38:53;100967.22;;;-0.91;100.00
24762;BME280;12865;51.934;10.330;2023-01-25T05:41:39;100969.00;;;-0.95;100.00
24762;BME280;12865;51.934;10.330;2023-01-25T05:44:25;100970.84;;;-1.01;100.00
24762;BME280;12865;51.934;10.330;2023-01-25T05:47:16;100977.84;;;-1.03;100.00
24762;BME280;12865;51.934;10.330;2023-01-25T05:50:02;100973.59;;;-1.09;100.00
24762;BME280;12865;51.934;10.330;2023-01-25T05:52:48;100964.66;;;-0.97;100.00
24762;BME280;12865;51.934;10.330;2023-01-25T05:55:34;100968.28;;;-1.04;100.00
24762;BME280;12865;51.934;10.330;2023-01-25T05:58:21;100965.66;;;-1.04;100.00
24762;BME280;12865;51.934;10.330;2023-01-25T06:01:07;100965.63;;;-1.01;100.00
24762;BME280;12865;51.934;10.330;2023-01-25T06:03:53;100958.66;;;-1.02;100.00
24762;BME280;12865;51.934;10.330;2023-01-25T06:06:38;100957.75;;;-1.00;100.00
24762;BME280;12865;51.934;10.330;2023-01-25T06:09:25;100948.28;;;-1.08;100.00
24762;BME280;12865;51.934;10.330;2023-01-25T06:12:11;100944.81;;;-1.09;100.00
24762;BME280;12865;51.934;10.330;2023-01-25T06:14:57;100937.72;;;-1.04;100.00
24762;BME280;12865;51.934;10.330;2023-01-25T06:17:42;100941.22;;;-1.03;100.00
24762;BME280;12865;51.934;10.330;2023-01-25T06:20:28;100931.56;;;-1.00;100.00
24762;BME280;12865;51.934;10.330;2023-01-25T06:23:14;100940.41;;;-1.05;100.00
24762;BME280;12865;51.934;10.330;2023-01-25T06:26:02;100933.53;;;-1.12;100.00
24762;BME280;12865;51.934;10.330;2023-01-25T06:28:48;100927.19;;;-0.99;100.00
24762;BME280;12865;51.934;10.330;2023-01-25T06:31:33;100929.63;;;-0.89;100.00
24762;BME280;12865;51.934;10.330;2023-01-25T06:34:19;100930.50;;;-0.88;100.00
24762;BME280;12865;51.934;10.330;2023-01-25T06:37:05;100929.84;;;-1.01;100.00
24762;BME280;12865;51.934;10.330;2023-01-25T06:39:51;100931.56;;;-1.00;100.00
24762;BME280;12865;51.934;10.330;2023-01-25T06:42:37;100932.47;;;-1.01;100.00
24762;BME280;12865;51.934;10.330;2023-01-25T06:45:23;100933.25;;;-0.96;100.00
24762;BME280;12865;51.934;10.330;2023-01-25T06:48:08;100936.81;;;-1.00;100.00
24762;BME280;12865;51.934;10.330;2023-01-25T06:50:56;100928.75;;;-0.88;100.00
24762;BME280;12865;51.934;10.330;2023-01-25T06:53:44;100931.47;;;-0.95;100.00
24762;BME280;12865;51.934;10.330;2023-01-25T06:56:30;100934.19;;;-1.00;100.00
24762;BME280;12865;51.934;10.330;2023-01-25T06:59:17;100936.75;;;-0.97;100.00
24762;BME280;12865;51.934;10.330;2023-01-25T07:02:02;100928.06;;;-0.99;100.00
24762;BME280;12865;51.934;10.330;2023-01-25T07:04:48;100927.22;;;-1.01;100.00
24762;BME280;12865;51.934;10.330;2023-01-25T07:07:34;100928.94;;;-0.98;100.00
24762;BME280;12865;51.934;10.330;2023-01-25T07:12:47;100917.16;;;-0.74;100.00
24762;BME280;12865;51.934;10.330;2023-01-25T07:15:33;100914.75;;;-0.87;100.00
24762;BME280;12865;51.934;10.330;2023-01-25T07:18:19;100913.69;;;-0.76;100.00
24762;BME280;12865;51.934;10.330;2023-01-25T07:21:22;100916.28;;;-0.75;100.00
24762;BME280;12865;51.934;10.330;2023-01-25T07:24:12;100916.50;;;-0.87;100.00
24762;BME280;12865;51.934;10.330;2023-01-25T07:26:58;100916.56;;;-0.90;100.00
24762;BME280;12865;51.934;10.330;2023-01-25T07:29:44;100920.94;;;-0.91;100.00
24762;BME280;12865;51.934;10.330;2023-01-25T07:32:30;100917.50;;;-0.93;100.00
24762;BME280;12865;51.934;10.330;2023-01-25T07:35:15;100917.41;;;-0.90;100.00
24762;BME280;12865;51.934;10.330;2023-01-25T07:38:01;100914.88;;;-0.93;100.00
24762;BME280;12865;51.934;10.330;2023-01-25T07:40:51;100921.00;;;-0.94;100.00
24762;BME280;12865;51.934;10.330;2023-01-25T07:43:37;100921.78;;;-0.90;100.00
24762;BME280;12865;51.934;10.330;2023-01-25T07:46:23;100923.50;;;-0.86;100.00
24762;BME280;12865;51.934;10.330;2023-01-25T07:49:09;100916.41;;;-0.83;100.00
24762;BME280;12865;51.934;10.330;2023-01-25T07:51:55;100918.03;;;-0.75;100.00
24762;BME280;12865;51.934;10.330;2023-01-25T07:54:40;100920.78;;;-0.82;100.00
24762;BME280;12865;51.934;10.330;2023-01-25T07:57:26;100925.91;;;-0.75;100.00
24762;BME280;12865;51.934;10.330;2023-01-25T08:00:13;100924.16;;;-0.76;100.00
24762;BME280;12865;51.934;10.330;2023-01-25T08:02:59;100923.28;;;-0.75;100.00
24762;BME280;12865;51.934;10.330;2023-01-25T08:05:44;100924.03;;;-0.69;100.00
24762;BME280;12865;51.934;10.330;2023-01-25T08:08:32;100919.75;;;-0.71;100.00
24762;BME280;12865;51.934;10.330;2023-01-25T08:11:21;100914.69;;;-0.82;100.00
24762;BME280;12865;51.934;10.330;2023-01-25T08:14:07;100919.84;;;-0.77;100.00
24762;BME280;12865;51.934;10.330;2023-01-25T08:16:53;100913.69;;;-0.76;100.00
24762;BME280;12865;51.934;10.330;2023-01-25T08:19:39;100903.94;;;-0.67;100.00
24762;BME280;12865;51.934;10.330;2023-01-25T08:22:24;100912.69;;;-0.69;100.00
24762;BME280;12865;51.934;10.330;2023-01-25T08:25:11;100908.13;;;-0.58;100.00
24762;BME280;12865;51.934;10.330;2023-01-25T08:27:59;100903.81;;;-0.61;100.00
24762;BME280;12865;51.934;10.330;2023-01-25T08:30:45;100899.59;;;-0.69;100.00
24762;BME280;12865;51.934;10.330;2023-01-25T08:33:31;100894.31;;;-0.65;100.00
24762;BME280;12865;51.934;10.330;2023-01-25T08:36:17;100893.44;;;-0.65;100.00
24762;BME280;12865;51.934;10.330;2023-01-25T08:39:05;100891.75;;;-0.69;100.00
24762;BME280;12865;51.934;10.330;2023-01-25T08:41:51;100883.94;;;-0.71;100.00
24762;BME280;12865;51.934;10.330;2023-01-25T08:44:37;100879.59;;;-0.72;100.00
24762;BME280;12865;51.934;10.330;2023-01-25T08:47:23;100889.09;;;-0.66;100.00
24762;BME280;12865;51.934;10.330;2023-01-25T08:50:09;100892.72;;;-0.75;100.00
24762;BME280;12865;51.934;10.330;2023-01-25T08:52:54;100878.75;;;-0.75;100.00
24762;BME280;12865;51.934;10.330;2023-01-25T08:55:40;100882.72;;;-0.53;100.00
24762;BME280;12865;51.934;10.330;2023-01-25T08:58:27;100885.44;;;-0.59;100.00
24762;BME280;12865;51.934;10.330;2023-01-25T09:01:15;100875.72;;;-0.53;100.00
24762;BME280;12865;51.934;10.330;2023-01-25T09:04:02;100881.94;;;-0.58;100.00
24762;BME280;12865;51.934;10.330;2023-01-25T09:06:48;100872.34;;;-0.59;100.00
24762;BME280;12865;51.934;10.330;2023-01-25T09:09:33;100875.72;;;-0.53;100.00
24762;BME280;12865;51.934;10.330;2023-01-25T09:12:19;100874.97;;;-0.58;100.00
24762;BME280;12865;51.934;10.330;2023-01-25T09:15:05;100868.78;;;-0.55;100.00
24762;BME280;12865;51.934;10.330;2023-01-25T09:17:54;100869.63;;;-0.55;100.00
24762;BME280;12865;51.934;10.330;2023-01-25T09:20:40;100858.34;;;-0.57;100.00
24762;BME280;12865;51.934;10.330;2023-01-25T09:23:26;100860.03;;;-0.54;100.00
24762;BME280;12865;51.934;10.330;2023-01-25T09:26:11;100844.97;;;-0.43;100.00
24762;BME280;12865;51.934;10.330;2023-01-25T09:28:59;100846.88;;;-0.51;100.00
24762;BME280;12865;51.934;10.330;2023-01-25T09:31:45;100842.44;;;-0.48;100.00
24762;BME280;12865;51.934;10.330;2023-01-25T09:34:31;100838.75;;;-0.37;100.00
24762;BME280;12865;51.934;10.330;2023-01-25T09:37:16;100832.47;;;-0.29;100.00
24762;BME280;12865;51.934;10.330;2023-01-25T09:40:02;100838.50;;;-0.27;100.00
24762;BME280;12865;51.934;10.330;2023-01-25T09:43:00;100840.16;;;-0.21;100.00
24762;BME280;12865;51.934;10.330;2023-01-25T09:45:49;100841.78;;;-0.16;100.00
24762;BME280;12865;51.934;10.330;2023-01-25T09:48:39;100839.88;;;-0.09;100.00
24762;BME280;12865;51.934;10.330;2023-01-25T09:54:38;100835.50;;;-0.09;100.00
24762;BME280;12865;51.934;10.330;2023-01-25T09:57:35;100830.19;;;-0.06;100.00
24762;BME280;12865;51.934;10.330;2023-01-25T10:00:27;100829.31;;;-0.06;100.00
24762;BME280;12865;51.934;10.330;2023-01-25T10:03:21;100828.13;;;0.09;100.00
24762;BME280;12865;51.934;10.330;2023-01-25T10:06:11;100820.16;;;0.13;100.00
24762;BME280;12865;51.934;10.330;2023-01-25T10:09:04;100820.22;;;0.10;100.00
24762;BME280;12865;51.934;10.330;2023-01-25T10:11:58;100804.78;;;-0.02;100.00
24762;BME280;12865;51.934;10.330;2023-01-25T10:14:47;100800.47;;;-0.06;100.00
24762;BME280;12865;51.934;10.330;2023-01-25T10:17:37;100791.66;;;-0.01;100.00
24762;BME280;12865;51.934;10.330;2023-01-25T10:29:16;100772.44;;;0.34;100.00
24762;BME280;12865;51.934;10.330;2023-01-25T10:32:18;100762.84;;;0.33;100.00
24762;BME280;12865;51.934;10.330;2023-01-25T10:35:18;100756.75;;;0.33;100.00
24762;BME280;12865;51.934;10.330;2023-01-25T10:38:31;100744.78;;;0.21;100.00
24762;BME280;12865;51.934;10.330;2023-01-25T10:41:49;100737.66;;;0.28;100.00
24762;BME280;12865;51.934;10.330;2023-01-25T10:44:35;100736.59;;;0.35;100.00
24762;BME280;12865;51.934;10.330;2023-01-25T10:47:41;100734.97;;;0.29;100.00
24762;BME280;12865;51.934;10.330;2023-01-25T10:53:30;100719.13;;;0.34;100.00
24762;BME280;12865;51.934;10.330;2023-01-25T10:56:23;100712.84;;;0.39;100.00
24762;BME280;12865;51.934;10.330;2023-01-25T10:59:22;100706.72;;;0.41;100.00
24762;BME280;12865;51.934;10.330;2023-01-25T11:08:18;100689.44;;;0.64;100.00
24762;BME280;12865;51.934;10.330;2023-01-25T11:11:21;100684.09;;;0.69;100.00
24762;BME280;12865;51.934;10.330;2023-01-25T11:14:17;100687.09;;;0.55;100.00
24762;BME280;12865;51.934;10.330;2023-01-25T11:17:04;100684.41;;;0.57;100.00
24762;BME280;12865;51.934;10.330;2023-01-25T11:20:16;100681.50;;;0.67;100.00
24762;BME280;12865;51.934;10.330;2023-01-25T11:23:02;100673.22;;;0.50;100.00
24762;BME280;12865;51.934;10.330;2023-01-25T11:25:48;100672.41;;;0.48;100.00
24762;BME280;12865;51.934;10.330;2023-01-25T11:28:34;100665.31;;;0.52;100.00
24762;BME280;12865;51.934;10.330;2023-01-25T11:31:21;100666.84;;;0.59;100.00
24762;BME280;12865;51.934;10.330;2023-01-25T11:34:13;100654.47;;;0.64;100.00
24762;BME280;12865;51.934;10.330;2023-01-25T11:55:36;100619.81;;;0.84;100.00
24762;BME280;12865;51.934;10.330;2023-01-25T12:05:09;100599.41;;;0.92;100.00
24762;BME280;12865;51.934;10.330;2023-01-25T12:10:56;100586.13;;;0.98;100.00
24762;BME280;12865;51.934;10.330;2023-01-25T12:14:03;100585.50;;;0.90;100.00
24762;BME280;12865;51.934;10.330;2023-01-25T12:17:10;100578.53;;;0.89;100.00
24762;BME280;12865;51.934;10.330;2023-01-25T12:23:13;100565.34;;;0.90;100.00
24762;BME280;12865;51.934;10.330;2023-01-25T12:26:14;100558.16;;;0.97;100.00
24762;BME280;12865;51.934;10.330;2023-01-25T12:29:17;100550.56;;;0.86;100.00
24762;BME280;12865;51.934;10.330;2023-01-25T12:32:23;100544.03;;;0.99;100.00
24762;BME280;12865;51.934;10.330;2023-01-25T12:35:22;100544.13;;;0.98;100.00
24762;BME280;12865;51.934;10.330;2023-01-25T12:38:14;100525.38;;;1.08;100.00
24762;BME280;12865;51.934;10.330;2023-01-25T12:41:07;100524.13;;;0.92;100.00
24762;BME280;12865;51.934;10.330;2023-01-25T12:44:07;100526.84;;;0.91;100.00
24762;BME280;12865;51.934;10.330;2023-01-25T12:47:53;100510.25;;;0.89;100.00
24762;BME280;12865;51.934;10.330;2023-01-25T12:50:28;100508.78;;;0.80;100.00
24762;BME280;12865;51.934;10.330;2023-01-25T12:53:23;100499.53;;;0.96;100.00
24762;BME280;12865;51.934;10.330;2023-01-25T12:59:45;100483.84;;;0.93;100.00
24762;BME280;12865;51.934;10.330;2023-01-25T13:06:05;100475.56;;;0.79;100.00
24762;BME280;12865;51.934;10.330;2023-01-25T13:09:19;100458.56;;;0.91;100.00
24762;BME280;12865;51.934;10.330;2023-01-25T13:12:10;100458.13;;;1.04;100.00
24762;BME280;12865;51.934;10.330;2023-01-25T13:14:56;100449.03;;;0.88;100.00
24762;BME280;12865;51.934;10.330;2023-01-25T13:17:41;100456.38;;;1.05;100.00
24762;BME280;12865;51.934;10.330;2023-01-25T13:23:35;100445.44;;;0.91;100.00
24762;BME280;12865;51.934;10.330;2023-01-25T13:35:27;100424.91;;;1.03;100.00
24762;BME280;12865;51.934;10.330;2023-01-25T13:41:10;100433.22;;;0.90;100.00
24762;BME280;12865;51.934;10.330;2023-01-25T13:44:19;100427.25;;;0.85;100.00
24762;BME280;12865;51.934;10.330;2023-01-25T13:47:11;100427.44;;;0.78;100.00
24762;BME280;12865;51.934;10.330;2023-01-25T13:56:01;100411.56;;;0.83;100.00
24762;BME280;12865;51.934;10.330;2023-01-25T13:58:47;100409.22;;;0.74;100.00
24762;BME280;12865;51.934;10.330;2023-01-25T14:01:34;100406.56;;;0.75;100.00
24762;BME280;12865;51.934;10.330;2023-01-25T14:04:20;100402.75;;;0.58;100.00
24762;BME280;12865;51.934;10.330;2023-01-25T14:07:09;100396.59;;;0.59;100.00
24762;BME280;12865;51.934;10.330;2023-01-25T14:10:00;100393.97;;;0.59;100.00
24762;BME280;12865;51.934;10.330;2023-01-25T14:12:46;100385.78;;;0.69;100.00
24762;BME280;12865;51.934;10.330;2023-01-25T14:15:32;100387.53;;;0.69;100.00
24762;BME280;12865;51.934;10.330;2023-01-25T14:18:20;100383.28;;;0.65;100.00
24762;BME280;12865;51.934;10.330;2023-01-25T14:24:08;100385.13;;;0.89;100.00
24762;BME280;12865;51.934;10.330;2023-01-25T14:26:54;100382.03;;;0.76;100.00
24762;BME280;12865;51.934;10.330;2023-01-25T14:29:40;100374.94;;;0.78;100.00
24762;BME280;12865;51.934;10.330;2023-01-25T14:32:26;100385.38;;;0.82;100.00
24762;BME280;12865;51.934;10.330;2023-01-25T14:35:41;100384.25;;;0.62;100.00
24762;BME280;12865;51.934;10.330;2023-01-25T14:38:29;100382.53;;;0.61;100.00
24762;BME280;12865;51.934;10.330;2023-01-25T14:41:18;100383.28;;;0.65;100.00
24762;BME280;12865;51.934;10.330;2023-01-25T14:44:11;100381.97;;;0.78;100.00
24762;BME280;12865;51.934;10.330;2023-01-25T14:47:35;100376.91;;;0.72;100.00
24762;BME280;12865;51.934;10.330;2023-01-25T14:50:32;100369.09;;;0.70;100.00
24762;BME280;12865;51.934;10.330;2023-01-25T14:53:22;100360.56;;;0.64;100.00
24762;BME280;12865;51.934;10.330;2023-01-25T14:59:25;100352.88;;;0.58;100.00
24762;BME280;12865;51.934;10.330;2023-01-25T15:02:24;100347.25;;;0.70;100.00
24762;BME280;12865;51.934;10.330;2023-01-25T15:05:20;100353.94;;;0.52;100.00
24762;BME280;12865;51.934;10.330;2023-01-25T15:10:56;100339.78;;;0.58;100.00
24762;BME280;12865;51.934;10.330;2023-01-25T15:13:42;100335.00;;;0.43;100.00
24762;BME280;12865;51.934;10.330;2023-01-25T15:16:33;100336.94;;;0.37;100.00
24762;BME280;12865;51.934;10.330;2023-01-25T15:19:29;100326.59;;;0.33;100.00
24762;BME280;12865;51.934;10.330;2023-01-25T15:22:15;100323.34;;;0.53;100.00
24762;BME280;12865;51.934;10.330;2023-01-25T15:25:01;100319.09;;;0.49;100.00
24762;BME280;12865;51.934;10.330;2023-01-25T15:27:47;100327.09;;;0.44;100.00
24762;BME280;12865;51.934;10.330;2023-01-25T15:30:33;100317.25;;;0.24;100.00
24762;BME280;12865;51.934;10.330;2023-01-25T15:33:21;100322.44;;;0.26;100.00
24762;BME280;12865;51.934;10.330;2023-01-25T15:36:08;100313.63;;;0.28;100.00
24762;BME280;12865;51.934;10.330;2023-01-25T15:38:54;100311.28;;;0.47;100.00
24762;BME280;12865;51.934;10.330;2023-01-25T15:41:40;100308.00;;;0.41;100.00
24762;BME280;12865;51.934;10.330;2023-01-25T15:44:26;100299.56;;;0.31;100.00
24762;BME280;12865;51.934;10.330;2023-01-25T15:47:11;100302.41;;;0.23;100.00
24762;BME280;12865;51.934;10.330;2023-01-25T15:49:57;100299.06;;;0.20;100.00
24762;BME280;12865;51.934;10.330;2023-01-25T15:52:43;100293.72;;;0.21;100.00
24762;BME280;12865;51.934;10.330;2023-01-25T15:55:29;100300.84;;;0.18;100.00
24762;BME280;12865;51.934;10.330;2023-01-25T15:58:26;100294.03;;;0.40;100.00